SKUI/UIB METAR and TAF weather

Enter ICAO airport designator
Station Type Date Time Source
SKUI METAR 2018/12/10 13:00 UTC NOAA

SKUI 101300Z 00000KT 4000 BR OVC008 26/25 A2985 RMK HZ


Station Type Date Time Source
SKUI Decoded METAR 2018/12/10 13:00 UTC NOAA

Quibdo / El Carano, Colombia (SKUI) 05-43N 076-37W
Dec 10, 2018 - 08:00 AM EST / 2018.12.10 1300 UTC
Wind: Calm:0
Visibility: 2 mile(s):0
Sky conditions: overcast
Weather: mist
Temperature: 78 F (26 C)
Dew Point: 77 F (25 C)
Relative Humidity: 94%
Pressure (altimeter): 29.85 in. Hg (1010 hPa)
ob: SKUI 101300Z 00000KT 4000 BR OVC008 26/25 A2985 RMK HZ
cycle: 13

Station Type Date Time Source
SKUI TAF UTC NOAA

Error!


Example: see airport list